Time;durP1;ratioP1;P1;durP2;ratioP2;P2;SDS_P1;SDS_P2;PMS_P1;PMS_P2;Temp;Humidity;BMP_temperature;BMP_pressure;BME280_temperature;BME280_humidity;BME280_pressure;Samples;Min_cycle;Max_cycle;Signal;HPM_P1;HPM_P2
2023/12/16 00:02:00;;;;;;;;;;;;;;;17.00;45.27;101880.19;10289215;28;812;-73
2023/12/16 00:06:56;;;;;;;;;;;;;;;16.96;45.55;101888.97;10288382;28;829;-74
2023/12/16 00:11:51;;;;;;;;;;;;;;;16.93;45.31;101880.22;10288370;28;948;-74
2023/12/16 00:16:47;;;;;;;;;;;;;;;16.96;45.33;101886.34;10288077;28;1902;-73
2023/12/16 00:21:43;;;;;;;;;;;;;;;16.99;45.37;101890.72;10287748;28;862;-73
2023/12/16 00:26:39;;;;;;;;;;;;;;;16.99;45.13;101883.69;10287646;28;770;-73
2023/12/16 00:31:35;;;;;;;;;;;;;;;16.95;45.49;101879.34;10287460;28;875;-73
2023/12/16 00:36:31;;;;;;;;;;;;;;;16.94;45.41;101866.16;10287232;28;1898;-73
2023/12/16 00:41:27;;;;;;;;;;;;;;;16.94;45.24;101861.75;10287685;28;839;-74
2023/12/16 00:46:23;;;;;;;;;;;;;;;16.96;45.12;101849.47;10286803;28;858;-73
2023/12/16 00:51:18;;;;;;;;;;;;;;;16.97;45.35;101860.88;10285851;28;850;-74
2023/12/16 00:56:14;;;;;;;;;;;;;;;16.94;45.21;101874.94;10286778;28;1910;-73
2023/12/16 01:01:10;;;;;;;;;;;;;;;16.93;45.50;101880.22;10286888;28;819;-73
2023/12/16 01:06:06;;;;;;;;;;;;;;;16.93;45.13;101872.34;10286119;28;889;-73
2023/12/16 01:11:02;;;;;;;;;;;;;;;16.96;45.18;101880.22;10285388;28;850;-72
2023/12/16 01:15:58;;;;;;;;;;;;;;;16.94;45.13;101881.97;10285904;28;1894;-72
2023/12/16 01:20:54;;;;;;;;;;;;;;;16.92;45.20;101886.38;10285194;28;1004;-73
2023/12/16 01:25:50;;;;;;;;;;;;;;;16.91;45.16;101898.66;10285452;28;962;-73
2023/12/16 01:30:46;;;;;;;;;;;;;;;16.96;45.14;101902.16;10285704;28;939;-72
2023/12/16 01:35:41;;;;;;;;;;;;;;;16.93;45.15;101904.81;10285935;28;1969;-73
2023/12/16 01:40:37;;;;;;;;;;;;;;;16.92;45.22;101896.91;10284988;28;991;-73
2023/12/16 01:45:33;;;;;;;;;;;;;;;16.88;45.30;101897.81;10285234;28;857;-73
2023/12/16 01:50:29;;;;;;;;;;;;;;;16.92;44.97;101899.53;10284762;28;903;-72
2023/12/16 01:55:25;;;;;;;;;;;;;;;16.92;45.09;101902.16;10284764;28;2024;-72
2023/12/16 02:00:21;;;;;;;;;;;;;;;16.91;45.28;101919.75;10285356;28;770;-73
2023/12/16 02:05:17;;;;;;;;;;;;;;;16.88;45.09;101913.63;10293744;28;843;-73
2023/12/16 02:10:13;;;;;;;;;;;;;;;16.92;45.04;101907.44;10297949;28;1048;-73
2023/12/16 02:15:09;;;;;;;;;;;;;;;16.93;44.96;101911.84;10297141;28;1964;-73
2023/12/16 02:20:04;;;;;;;;;;;;;;;16.91;45.10;101910.97;10297628;28;981;-72
2023/12/16 02:25:00;;;;;;;;;;;;;;;16.87;45.05;101896.91;10297676;28;986;-72
2023/12/16 02:29:56;;;;;;;;;;;;;;;16.89;45.19;101902.19;10297530;28;839;-72
2023/12/16 02:34:52;;;;;;;;;;;;;;;16.92;45.05;101902.16;10297605;28;1961;-73
2023/12/16 02:39:48;;;;;;;;;;;;;;;16.89;45.22;101899.56;10297309;28;942;-73
2023/12/16 02:44:44;;;;;;;;;;;;;;;16.86;45.10;101903.94;10297868;28;872;-73
2023/12/16 02:49:40;;;;;;;;;;;;;;;16.88;45.12;101900.47;10297264;28;798;-72
2023/12/16 02:54:35;;;;;;;;;;;;;;;16.91;45.14;101895.16;10297696;28;1959;-72
2023/12/16 02:59:31;;;;;;;;;;;;;;;16.89;45.10;101884.63;10297089;28;906;-73
2023/12/16 03:04:27;;;;;;;;;;;;;;;16.86;45.01;101876.75;10297363;28;941;-72
2023/12/16 03:09:23;;;;;;;;;;;;;;;16.88;45.34;101880.25;10296319;28;944;-73
2023/12/16 03:14:19;;;;;;;;;;;;;;;16.91;44.94;101879.38;10295711;28;1894;-73
2023/12/16 03:19:15;;;;;;;;;;;;;;;16.88;45.22;101890.78;10290882;28;933;-73
2023/12/16 03:24:12;;;;;;;;;;;;;;;16.88;45.06;101887.28;10290734;28;876;-72
2023/12/16 03:29:08;;;;;;;;;;;;;;;16.90;45.30;101894.28;10289854;28;902;-72
2023/12/16 03:34:04;;;;;;;;;;;;;;;16.93;44.99;101893.41;10290779;28;1898;-72
2023/12/16 03:39:00;;;;;;;;;;;;;;;16.92;45.09;101894.28;10289631;28;762;-72
2023/12/16 03:43:55;;;;;;;;;;;;;;;16.89;45.08;101894.28;10289361;28;819;-73
2023/12/16 03:48:52;;;;;;;;;;;;;;;16.86;44.97;101884.66;10288539;28;1067;-73
2023/12/16 03:53:48;;;;;;;;;;;;;;;16.89;45.20;101886.38;10288791;28;1914;-73
2023/12/16 03:58:44;;;;;;;;;;;;;;;16.92;45.08;101886.38;10288909;28;909;-74
2023/12/16 04:03:40;;;;;;;;;;;;;;;16.90;45.09;101899.56;10289208;28;764;-72
2023/12/16 04:08:36;;;;;;;;;;;;;;;16.86;45.24;101906.59;10288422;28;779;-73
2023/12/16 04:13:34;;;;;;;;;;;;;;;16.86;45.01;101897.81;10288757;28;1890;-73
2023/12/16 04:18:30;;;;;;;;;;;;;;;16.88;45.18;101898.69;10288644;28;854;-72
2023/12/16 04:23:26;;;;;;;;;;;;;;;16.89;45.04;101896.91;10287778;28;951;-73
2023/12/16 04:28:22;;;;;;;;;;;;;;;16.84;45.27;101896.94;10287124;28;810;-73
2023/12/16 04:33:18;;;;;;;;;;;;;;;16.82;44.97;101903.97;10287279;28;1890;-73
2023/12/16 04:38:14;;;;;;;;;;;;;;;16.84;45.33;101887.28;10288172;28;1352;-73
2023/12/16 04:43:09;;;;;;;;;;;;;;;16.85;44.90;101883.78;10287671;28;865;-73
2023/12/16 04:48:05;;;;;;;;;;;;;;;16.89;45.09;101883.75;10286868;28;882;-73
2023/12/16 04:53:02;;;;;;;;;;;;;;;16.94;44.96;101880.22;10286701;28;778;-73
2023/12/16 04:57:58;;;;;;;;;;;;;;;16.94;44.78;101881.97;10286521;28;1914;-72
2023/12/16 05:02:54;;;;;;;;;;;;;;;16.97;44.73;101880.19;10285748;28;913;-73
2023/12/16 05:07:50;;;;;;;;;;;;;;;16.98;44.71;101884.59;10286705;28;894;-73
2023/12/16 05:12:46;;;;;;;;;;;;;;;16.99;44.62;101881.06;10286043;28;913;-73
2023/12/16 05:17:41;;;;;;;;;;;;;;;16.99;44.63;101891.59;10285681;28;1893;-73
2023/12/16 05:22:37;;;;;;;;;;;;;;;16.99;44.50;101896.88;10286160;28;854;-74
2023/12/16 05:27:33;;;;;;;;;;;;;;;16.99;44.83;101910.03;10286065;28;832;-73
2023/12/16 05:32:29;;;;;;;;;;;;;;;17.03;44.53;101913.56;10285625;28;914;-73
2023/12/16 05:37:25;;;;;;;;;;;;;;;17.02;44.55;101915.28;10285576;28;1955;-73
2023/12/16 05:42:21;;;;;;;;;;;;;;;17.02;44.55;101915.28;10285480;28;834;-74
2023/12/16 05:47:17;;;;;;;;;;;;;;;17.06;44.61;101913.53;10284914;28;921;-74
2023/12/16 05:52:12;;;;;;;;;;;;;;;17.05;44.50;101912.63;10284046;28;1000;-74
2023/12/16 05:57:08;;;;;;;;;;;;;;;17.02;44.47;101914.41;10284374;28;1906;-75
2023/12/16 06:02:04;;;;;;;;;;;;;;;17.03;44.52;101903.00;10285137;28;890;-75
2023/12/16 06:07:00;;;;;;;;;;;;;;;17.05;44.24;101895.94;10284464;28;947;-74
2023/12/16 06:11:56;;;;;;;;;;;;;;;17.02;44.63;101891.56;10283783;28;881;-74
2023/12/16 06:16:52;;;;;;;;;;;;;;;17.01;44.38;101886.31;10284168;28;1890;-75
2023/12/16 06:21:48;;;;;;;;;;;;;;;17.03;44.37;101898.59;10284784;28;882;-75
2023/12/16 06:26:44;;;;;;;;;;;;;;;17.02;44.25;101895.97;10285247;28;877;-75
2023/12/16 06:31:40;;;;;;;;;;;;;;;17.00;44.25;101897.72;10283946;28;845;-75
2023/12/16 06:36:36;;;;;;;;;;;;;;;17.01;44.39;101900.38;10282840;28;1890;-75
2023/12/16 06:41:31;;;;;;;;;;;;;;;16.99;44.41;101903.91;10283123;28;1029;-75
2023/12/16 06:46:27;;;;;;;;;;;;;;;16.99;44.26;101906.53;10284326;28;878;-75
2023/12/16 06:51:23;;;;;;;;;;;;;;;17.01;44.34;101915.31;10288699;28;857;-75
2023/12/16 06:56:19;;;;;;;;;;;;;;;16.97;44.31;101910.94;10291370;28;1963;-75
2023/12/16 07:01:15;;;;;;;;;;;;;;;16.93;44.33;101911.84;10291052;28;839;-75
2023/12/16 07:06:11;;;;;;;;;;;;;;;16.91;44.15;101921.50;10291050;28;848;-78
2023/12/16 07:11:07;;;;;;;;;;;;;;;16.83;44.49;101917.13;10290678;28;767;-79
2023/12/16 07:16:04;;;;;;;;;;;;;;;16.77;44.25;101932.97;10291104;28;1957;-81
2023/12/16 07:20:59;;;;;;;;;;;;;;;16.72;44.23;101949.66;10290322;28;794;-75
2023/12/16 07:25:55;;;;;;;;;;;;;;;16.71;44.02;101938.22;10290663;28;811;-73
2023/12/16 07:30:51;;;;;;;;;;;;;;;16.74;44.33;101938.22;10289822;28;995;-77
2023/12/16 07:35:47;;;;;;;;;;;;;;;16.71;44.28;101943.50;10289318;28;1906;-75
2023/12/16 07:40:43;;;;;;;;;;;;;;;16.72;44.51;101950.53;10289566;28;776;-75
2023/12/16 07:45:40;;;;;;;;;;;;;;;16.73;44.42;101944.38;10289343;28;1181;-75
2023/12/16 07:50:36;;;;;;;;;;;;;;;16.71;44.75;101932.94;10289184;28;806;-75
2023/12/16 07:55:32;;;;;;;;;;;;;;;16.75;44.83;101954.91;10288894;28;1910;-75
2023/12/16 08:00:28;;;;;;;;;;;;;;;16.76;44.54;101957.50;10288535;28;910;-75
2023/12/16 08:05:26;;;;;;;;;;;;;;;16.79;44.59;101962.84;10289624;28;949;-75
2023/12/16 08:10:22;;;;;;;;;;;;;;;16.83;44.47;101969.81;10288971;28;925;-75
2023/12/16 08:15:18;;;;;;;;;;;;;;;16.82;44.08;101975.97;10288148;28;1894;-75
2023/12/16 08:20:13;;;;;;;;;;;;;;;16.84;44.45;101976.81;10288689;28;844;-75
2023/12/16 08:25:09;;;;;;;;;;;;;;;16.89;44.06;101962.78;10288696;28;819;-75
2023/12/16 08:30:05;;;;;;;;;;;;;;;16.86;44.31;101966.28;10287794;28;1658;-75
2023/12/16 08:35:03;;;;;;;;;;;;;;;16.89;44.07;101962.78;10287388;28;1960;-75
2023/12/16 08:39:58;;;;;;;;;;;;;;;16.92;44.02;101983.84;10287291;28;952;-74
2023/12/16 08:44:54;;;;;;;;;;;;;;;16.89;44.00;101971.56;10287681;28;878;-75
2023/12/16 08:49:51;;;;;;;;;;;;;;;16.91;44.12;101976.81;10287491;28;875;-75
2023/12/16 08:54:46;;;;;;;;;;;;;;;16.94;44.05;101982.06;10287199;28;1981;-75
2023/12/16 08:59:42;;;;;;;;;;;;;;;16.91;43.98;101988.22;10286468;28;896;-75
2023/12/16 09:04:38;;;;;;;;;;;;;;;16.94;43.97;102000.50;10286919;28;886;-74
2023/12/16 09:09:34;;;;;;;;;;;;;;;16.96;43.96;102006.66;10287340;28;853;-74
2023/12/16 09:14:30;;;;;;;;;;;;;;;16.94;43.87;102013.69;10286356;28;1963;-75
2023/12/16 09:19:26;;;;;;;;;;;;;;;16.94;43.89;102019.81;10286324;28;800;-75
2023/12/16 09:24:22;;;;;;;;;;;;;;;16.97;43.96;102025.06;10285687;28;960;-75
2023/12/16 09:29:18;;;;;;;;;;;;;;;16.97;43.89;102037.38;10285452;28;850;-75
2023/12/16 09:34:14;;;;;;;;;;;;;;;16.98;43.80;102028.63;10285536;28;1898;-74
2023/12/16 09:39:10;;;;;;;;;;;;;;;16.99;43.84;102027.72;10285186;28;833;-75
2023/12/16 09:44:06;;;;;;;;;;;;;;;16.98;43.80;102036.53;10285040;28;799;-75
2023/12/16 09:49:02;;;;;;;;;;;;;;;16.95;43.97;102029.50;10285537;28;818;-75
2023/12/16 09:53:58;;;;;;;;;;;;;;;16.97;43.97;102018.94;10284055;28;1909;-75
2023/12/16 09:58:54;;;;;;;;;;;;;;;16.95;44.01;102011.06;10284601;28;805;-75
2023/12/16 10:03:50;;;;;;;;;;;;;;;16.96;43.87;102022.47;10285172;28;804;-75
2023/12/16 10:08:47;;;;;;;;;;;;;;;16.99;43.82;102028.59;10284463;28;781;-75
2023/12/16 10:13:43;;;;;;;;;;;;;;;16.96;43.90;102014.56;10284847;28;1953;-75
2023/12/16 10:18:39;;;;;;;;;;;;;;;16.97;43.97;101998.72;10284997;28;917;-75
2023/12/16 10:23:34;;;;;;;;;;;;;;;17.00;43.78;102001.38;10283638;28;1072;-74
2023/12/16 10:28:30;;;;;;;;;;;;;;;17.02;43.91;101993.44;10291765;28;886;-75
2023/12/16 10:33:27;;;;;;;;;;;;;;;17.02;43.70;102004.88;10292137;28;1894;-75
2023/12/16 10:38:23;;;;;;;;;;;;;;;17.04;43.78;101984.66;10291405;28;1251;-75
2023/12/16 10:43:18;;;;;;;;;;;;;;;17.05;43.92;101990.81;10291787;28;815;-75
2023/12/16 10:48:14;;;;;;;;;;;;;;;17.05;43.74;101977.63;10291377;28;858;-75
2023/12/16 10:53:10;;;;;;;;;;;;;;;17.06;43.73;101971.50;10291388;28;1080;-75
2023/12/16 10:58:06;;;;;;;;;;;;;;;17.04;43.65;101963.59;10291189;28;1973;-76
2023/12/16 11:03:02;;;;;;;;;;;;;;;17.02;43.80;101960.06;10291023;28;826;-75
2023/12/16 11:08:01;;;;;;;;;;;;;;;17.02;43.93;101960.06;10291432;28;859;-75
2023/12/16 11:12:57;;;;;;;;;;;;;;;17.04;43.81;101960.06;10290003;28;1012;-74
2023/12/16 11:17:53;;;;;;;;;;;;;;;17.04;43.88;101946.91;10289784;28;1894;-75
2023/12/16 11:22:49;;;;;;;;;;;;;;;17.02;43.82;101954.81;10290292;28;816;-75
2023/12/16 11:27:45;;;;;;;;;;;;;;;17.03;43.82;101932.00;10290127;28;862;-75
2023/12/16 11:32:42;;;;;;;;;;;;;;;17.00;43.92;101919.72;10290436;28;1012;-76
2023/12/16 11:37:38;;;;;;;;;;;;;;;17.03;43.84;101908.28;10289138;28;1898;-74
2023/12/16 11:42:33;;;;;;;;;;;;;;;17.04;43.79;101910.03;10289672;28;858;-75
2023/12/16 11:47:29;;;;;;;;;;;;;;;17.02;43.77;101919.69;10290106;28;889;-75
2023/12/16 11:52:27;;;;;;;;;;;;;;;17.04;43.77;101904.75;10289210;28;771;-74
2023/12/16 11:57:23;;;;;;;;;;;;;;;17.03;43.74;101903.88;10289551;28;1898;-74
2023/12/16 12:02:18;;;;;;;;;;;;;;;17.01;43.83;101902.13;10288791;28;814;-75
2023/12/16 12:07:14;;;;;;;;;;;;;;;17.04;43.76;101905.63;10325974;28;1364;-88
2023/12/16 12:12:10;;;;;;;;;;;;;;;17.02;43.66;101902.09;10329059;28;1632;-86
2023/12/16 12:17:06;;;;;;;;;;;;;;;17.02;43.93;101891.56;10328904;28;1984;-89
2023/12/16 12:22:02;;;;;;;;;;;;;;;17.01;43.86;101884.56;10328639;28;1296;-75
2023/12/16 12:26:58;;;;;;;;;;;;;;;17.02;43.70;101885.44;10329074;28;876;-75
2023/12/16 12:31:54;;;;;;;;;;;;;;;17.01;43.84;101875.78;10328260;28;1423;-75
2023/12/16 12:36:50;;;;;;;;;;;;;;;16.99;43.82;101878.41;10328577;28;1898;-75
2023/12/16 12:41:46;;;;;;;;;;;;;;;17.02;43.78;101875.75;10328683;28;992;-75
2023/12/16 12:46:42;;;;;;;;;;;;;;;17.01;43.88;101865.25;10327641;28;1521;-75
2023/12/16 12:51:37;;;;;;;;;;;;;;;17.04;43.67;101865.22;10328029;28;895;-75
2023/12/16 12:56:33;;;;;;;;;;;;;;;17.05;43.75;101859.06;10327251;28;1902;-75
2023/12/16 13:01:29;;;;;;;;;;;;;;;17.03;43.93;101838.00;10326943;28;1474;-75
2023/12/16 13:06:25;;;;;;;;;;;;;;;17.03;43.83;101835.38;10327482;28;1415;-75
2023/12/16 13:11:21;;;;;;;;;;;;;;;17.39;43.63;101820.16;10326900;28;1400;-73
2023/12/16 13:16:17;;;;;;;;;;;;;;;17.46;44.38;101810.44;10326431;28;1947;-69
2023/12/16 13:21:13;;;;;;;;;;;;;;;17.39;44.87;101806.09;10325792;28;1411;-72
2023/12/16 13:26:10;;;;;;;;;;;;;;;17.40;45.10;101798.19;10329962;28;1447;-73
2023/12/16 13:31:06;;;;;;;;;;;;;;;17.42;44.96;101793.78;10326363;28;1412;-72
2023/12/16 13:36:02;;;;;;;;;;;;;;;17.51;45.15;101793.69;10325235;28;1956;-73
2023/12/16 13:40:58;;;;;;;;;;;;;;;17.50;45.36;101791.03;10326144;28;876;-72
2023/12/16 13:45:54;;;;;;;;;;;;;;;17.51;44.94;101798.94;10326483;28;1422;-72
2023/12/16 13:50:49;;;;;;;;;;;;;;;17.49;45.34;101795.44;10325300;28;1411;-71
2023/12/16 13:55:45;;;;;;;;;;;;;;;17.45;45.40;101798.16;10325136;28;1914;-72
2023/12/16 14:00:41;;;;;;;;;;;;;;;17.36;45.57;101808.75;10324963;28;1423;-72
2023/12/16 14:05:37;;;;;;;;;;;;;;;17.30;45.40;101797.38;10324736;28;1545;-77
2023/12/16 14:10:35;;;;;;;;;;;;;;;17.21;45.52;101800.13;10325222;28;892;-73
2023/12/16 14:15:31;;;;;;;;;;;;;;;17.00;45.50;101806.44;10325078;28;1967;-73
2023/12/16 14:20:27;;;;;;;;;;;;;;;17.07;45.29;101809.88;10325568;28;1037;-72
2023/12/16 14:25:24;;;;;;;;;;;;;;;17.17;45.16;101797.50;10325007;28;903;-72
2023/12/16 14:30:20;;;;;;;;;;;;;;;17.18;44.85;101800.13;10324909;28;891;-72
2023/12/16 14:35:15;;;;;;;;;;;;;;;17.17;44.85;101802.78;10324795;28;1956;-72
2023/12/16 14:40:11;;;;;;;;;;;;;;;17.22;44.82;101793.94;10324073;28;912;-73
2023/12/16 14:45:07;;;;;;;;;;;;;;;17.20;44.76;101794.84;10323573;28;1336;-73
2023/12/16 14:50:03;;;;;;;;;;;;;;;17.20;44.64;101794.84;10324606;28;1478;-73
2023/12/16 14:54:59;;;;;;;;;;;;;;;17.20;44.64;101789.56;10324182;28;1906;-77
2023/12/16 14:59:55;;;;;;;;;;;;;;;17.26;44.80;101790.38;10324293;28;787;-74
2023/12/16 15:04:51;;;;;;;;;;;;;;;17.35;44.81;101796.50;10324766;28;841;-74
2023/12/16 15:09:47;;;;;;;;;;;;;;;17.38;44.85;101792.06;10324756;28;948;-74
2023/12/16 15:14:42;;;;;;;;;;;;;;;17.40;45.06;101792.06;10331318;28;1902;-75
2023/12/16 15:19:38;;;;;;;;;;;;;;;17.44;44.78;101794.63;10331147;28;818;-74
2023/12/16 15:24:35;;;;;;;;;;;;;;;17.45;44.91;101800.78;10331349;28;928;-74
2023/12/16 15:29:31;;;;;;;;;;;;;;;17.39;45.08;101793.78;10331425;28;953;-74
2023/12/16 15:34:26;;;;;;;;;;;;;;;17.35;45.05;101788.59;10330849;28;1959;-75
2023/12/16 15:39:24;;;;;;;;;;;;;;;17.32;45.07;101792.13;10331111;28;834;-74
2023/12/16 15:44:20;;;;;;;;;;;;;;;17.28;45.12;101791.25;10330855;28;889;-73
2023/12/16 15:49:19;;;;;;;;;;;;;;;17.14;45.18;101795.78;10330115;28;786;-73
2023/12/16 15:54:15;;;;;;;;;;;;;;;17.12;45.56;101787.00;10329769;28;1902;-73
2023/12/16 15:59:11;;;;;;;;;;;;;;;17.18;45.26;101791.34;10330314;28;866;-72
2023/12/16 16:04:07;;;;;;;;;;;;;;;17.15;45.29;101783.47;10330047;28;794;-72
2023/12/16 16:09:03;;;;;;;;;;;;;;;17.15;45.08;101786.97;10329999;28;902;-73
2023/12/16 16:13:59;;;;;;;;;;;;;;;17.14;45.02;101787.88;10329682;28;1902;-72
2023/12/16 16:18:55;;;;;;;;;;;;;;;17.17;45.08;101792.25;10328950;28;945;-73
2023/12/16 16:23:52;;;;;;;;;;;;;;;17.16;45.23;101807.19;10328768;28;958;-72
2023/12/16 16:28:48;;;;;;;;;;;;;;;17.20;45.10;101803.63;10329137;28;836;-73
2023/12/16 16:33:44;;;;;;;;;;;;;;;17.22;45.06;101814.16;10328305;28;1943;-73
2023/12/16 16:38:40;;;;;;;;;;;;;;;17.33;44.82;101822.84;10327368;28;1270;-73
2023/12/16 16:43:36;;;;;;;;;;;;;;;17.40;44.68;101840.38;10311315;28;742;-73
2023/12/16 16:48:32;;;;;;;;;;;;;;;17.44;44.69;101857.03;10328347;28;838;-73
2023/12/16 16:53:27;;;;;;;;;;;;;;;17.47;44.64;101859.63;10327539;28;937;-73
2023/12/16 16:58:23;;;;;;;;;;;;;;;17.45;44.74;101867.56;10327901;28;1913;-74
2023/12/16 17:03:19;;;;;;;;;;;;;;;17.39;44.74;101857.06;10327750;28;767;-72
2023/12/16 17:08:15;;;;;;;;;;;;;;;17.46;44.65;101848.22;10327649;28;948;-73
2023/12/16 17:13:11;;;;;;;;;;;;;;;17.52;44.66;101850.78;10327396;28;850;-73
2023/12/16 17:18:09;;;;;;;;;;;;;;;17.48;44.34;101854.34;10326499;28;1902;-73
2023/12/16 17:23:05;;;;;;;;;;;;;;;17.52;44.68;101849.91;10326521;28;868;-73
2023/12/16 17:28:00;;;;;;;;;;;;;;;17.42;44.86;101835.06;10326274;28;920;-73
2023/12/16 17:32:56;;;;;;;;;;;;;;;17.44;44.61;101822.75;10325993;28;911;-73
2023/12/16 17:37:52;;;;;;;;;;;;;;;17.51;44.78;101822.69;10326181;28;1901;-73
2023/12/16 17:42:48;;;;;;;;;;;;;;;17.54;44.60;101837.59;10326461;28;955;-73
2023/12/16 17:47:45;;;;;;;;;;;;;;;17.57;44.71;101834.06;10325741;28;901;-73
2023/12/16 17:52:41;;;;;;;;;;;;;;;17.56;44.77;101834.97;10326268;28;811;-73
2023/12/16 17:57:37;;;;;;;;;;;;;;;17.59;44.56;101835.81;10325473;28;1914;-73
2023/12/16 18:02:33;;;;;;;;;;;;;;;17.58;44.50;101844.63;10326063;28;892;-73
2023/12/16 18:07:28;;;;;;;;;;;;;;;17.55;44.72;101839.34;10325373;28;923;-73
2023/12/16 18:12:24;;;;;;;;;;;;;;;17.62;44.45;101813.81;10325271;28;921;-73
2023/12/16 18:17:20;;;;;;;;;;;;;;;17.58;44.60;101818.25;10325281;28;1962;-73
2023/12/16 18:22:16;;;;;;;;;;;;;;;17.59;44.73;101819.13;10325608;28;884;-73
2023/12/16 18:27:12;;;;;;;;;;;;;;;17.61;44.55;101834.03;10325966;28;900;-73
2023/12/16 18:32:09;;;;;;;;;;;;;;;17.59;44.73;101835.81;10324796;28;912;-73
2023/12/16 18:37:05;;;;;;;;;;;;;;;17.62;44.54;101862.13;10324846;28;1919;-73
2023/12/16 18:42:01;;;;;;;;;;;;;;;17.64;44.52;101855.09;10324651;28;921;-73
2023/12/16 18:46:57;;;;;;;;;;;;;;;17.64;44.62;101849.81;10329007;28;817;-73
2023/12/16 18:51:53;;;;;;;;;;;;;;;17.62;44.65;101858.63;10332882;28;886;-72
2023/12/16 18:56:49;;;;;;;;;;;;;;;17.67;44.57;101870.88;10332105;28;1914;-73
2023/12/16 19:01:45;;;;;;;;;;;;;;;17.65;44.62;101870.00;10333327;28;825;-73
2023/12/16 19:06:40;;;;;;;;;;;;;;;17.63;44.72;101866.53;10332280;28;855;-73
2023/12/16 19:11:37;;;;;;;;;;;;;;;17.66;44.51;101865.66;10331565;28;799;-73
2023/12/16 19:16:33;;;;;;;;;;;;;;;17.68;44.50;101854.19;10331901;28;1901;-73
2023/12/16 19:21:29;;;;;;;;;;;;;;;17.66;44.46;101857.72;10331192;28;774;-73
2023/12/16 19:26:25;;;;;;;;;;;;;;;17.70;44.50;101872.63;10331003;28;864;-73
2023/12/16 19:31:21;;;;;;;;;;;;;;;17.69;44.46;101863.84;10331992;28;1031;-73
2023/12/16 19:36:17;;;;;;;;;;;;;;;17.67;44.58;101860.34;10330852;28;1897;-73
2023/12/16 19:41:13;;;;;;;;;;;;;;;17.67;44.62;101849.78;10331012;28;832;-73
2023/12/16 19:46:10;;;;;;;;;;;;;;;17.71;44.47;101837.44;10331288;28;951;-73
2023/12/16 19:51:06;;;;;;;;;;;;;;;17.68;44.62;101846.28;10330082;28;886;-73
2023/12/16 19:56:02;;;;;;;;;;;;;;;17.70;44.46;101865.56;10329979;28;1926;-73
2023/12/16 20:00:58;;;;;;;;;;;;;;;17.70;44.46;101859.44;10329685;28;857;-72
2023/12/16 20:05:54;;;;;;;;;;;;;;;17.67;44.55;101868.25;10329559;28;1032;-73
2023/12/16 20:10:50;;;;;;;;;;;;;;;17.72;44.72;101869.09;10329371;28;758;-72
2023/12/16 20:15:46;;;;;;;;;;;;;;;17.74;44.41;101883.13;10328481;28;1904;-72
2023/12/16 20:20:42;;;;;;;;;;;;;;;17.71;44.56;101869.09;10328375;28;896;-72
2023/12/16 20:25:38;;;;;;;;;;;;;;;17.73;44.42;101875.22;10328752;28;826;-73
2023/12/16 20:30:34;;;;;;;;;;;;;;;17.77;44.66;101862.91;10329179;28;976;-73
2023/12/16 20:35:29;;;;;;;;;;;;;;;17.72;44.68;101852.38;10328171;28;1963;-72
2023/12/16 20:40:30;;;;;;;;;;;;;;;17.71;44.53;101866.44;10328729;28;814;-73
2023/12/16 20:45:27;;;;;;;;;;;;;;;17.67;44.64;101862.97;10327953;28;802;-73
2023/12/16 20:50:23;;;;;;;;;;;;;;;17.64;44.83;101865.66;10327809;28;822;-73
2023/12/16 20:55:19;;;;;;;;;;;;;;;17.65;44.80;101861.25;10328069;28;1914;-73
2023/12/16 21:00:15;;;;;;;;;;;;;;;17.65;44.78;101855.97;10327301;28;786;-73
2023/12/16 21:05:11;;;;;;;;;;;;;;;17.62;44.69;101867.41;10327728;28;916;-73
2023/12/16 21:10:07;;;;;;;;;;;;;;;17.59;44.73;101841.06;10327447;28;915;-73
2023/12/16 21:15:03;;;;;;;;;;;;;;;17.62;44.68;101853.34;10326093;28;1897;-73
2023/12/16 21:19:59;;;;;;;;;;;;;;;17.59;44.90;101856.91;10327227;28;865;-73
2023/12/16 21:24:55;;;;;;;;;;;;;;;17.57;44.69;101852.53;10327172;28;855;-73
2023/12/16 21:29:51;;;;;;;;;;;;;;;17.60;44.70;101866.53;10326844;28;866;-73
2023/12/16 21:34:48;;;;;;;;;;;;;;;17.59;44.76;101870.09;10326312;28;1905;-73
2023/12/16 21:39:44;;;;;;;;;;;;;;;17.57;44.96;101858.66;10326290;28;774;-72
2023/12/16 21:44:40;;;;;;;;;;;;;;;17.53;44.83;101860.47;10325890;28;865;-73
2023/12/16 21:49:35;;;;;;;;;;;;;;;17.52;44.98;101861.34;10325998;28;816;-73
2023/12/16 21:54:31;;;;;;;;;;;;;;;17.51;44.85;101870.16;10325586;28;1947;-73
2023/12/16 21:59:27;;;;;;;;;;;;;;;17.49;45.08;101882.47;10325554;28;862;-73
2023/12/16 22:04:23;;;;;;;;;;;;;;;17.45;44.99;101872.84;10325641;28;834;-73
2023/12/16 22:09:19;;;;;;;;;;;;;;;17.42;45.06;101885.16;10325346;28;791;-72
2023/12/16 22:14:15;;;;;;;;;;;;;;;17.39;45.15;101883.41;10325313;28;1898;-72
2023/12/16 22:19:11;;;;;;;;;;;;;;;17.37;45.37;101894.84;10324494;28;997;-73
2023/12/16 22:24:07;;;;;;;;;;;;;;;17.31;45.15;101886.09;10332853;28;856;-73
2023/12/16 22:29:03;;;;;;;;;;;;;;;17.27;45.15;101862.44;10333832;28;850;-72
2023/12/16 22:33:59;;;;;;;;;;;;;;;17.24;45.33;101871.25;10334199;28;1968;-72
2023/12/16 22:38:55;;;;;;;;;;;;;;;17.20;45.22;101873.91;10333604;28;740;-72
2023/12/16 22:43:51;;;;;;;;;;;;;;;17.20;45.14;101868.63;10333667;28;995;-73
2023/12/16 22:48:47;;;;;;;;;;;;;;;17.16;45.40;101880.06;10332696;28;797;-72
2023/12/16 22:53:43;;;;;;;;;;;;;;;17.09;45.26;101885.38;10333047;28;878;-72
2023/12/16 22:58:38;;;;;;;;;;;;;;;17.04;45.47;101874.00;10332640;28;1909;-73
2023/12/16 23:03:34;;;;;;;;;;;;;;;17.02;45.52;101870.50;10331889;28;789;-72
2023/12/16 23:08:30;;;;;;;;;;;;;;;17.01;45.52;101870.53;10332322;28;865;-72
2023/12/16 23:13:26;;;;;;;;;;;;;;;16.97;45.69;101866.16;10331777;28;873;-72
2023/12/16 23:18:22;;;;;;;;;;;;;;;16.91;45.65;101853.03;10331893;28;1957;-73
2023/12/16 23:23:18;;;;;;;;;;;;;;;16.83;45.93;101842.53;10331190;28;890;-72
2023/12/16 23:28:14;;;;;;;;;;;;;;;16.81;45.90;101823.22;10331001;28;796;-72
2023/12/16 23:33:09;;;;;;;;;;;;;;;16.79;45.78;101820.63;10330904;28;924;-73
2023/12/16 23:38:05;;;;;;;;;;;;;;;16.77;45.76;101806.56;10331072;28;1886;-73
2023/12/16 23:43:02;;;;;;;;;;;;;;;16.72;45.99;101808.31;10330446;28;858;-72
2023/12/16 23:47:58;;;;;;;;;;;;;;;16.72;45.93;101828.53;10331165;28;952;-72
2023/12/16 23:52:53;;;;;;;;;;;;;;;16.70;46.08;101846.09;10330152;28;944;-73
2023/12/16 23:57:49;;;;;;;;;;;;;;;16.64;46.15;101841.72;10329873;28;1902;-72
